Time;durP1;ratioP1;P1;durP2;ratioP2;P2;SDS_P1;SDS_P2;PMS_P1;PMS_P2;Temp;Humidity;BMP_temperature;BMP_pressure;BME280_temperature;BME280_humidity;BME280_pressure;Samples;Min_cycle;Max_cycle;Signal;HPM_P1;HPM_P2
2023/09/06 00:02:06;;;;;;;6.60;3.95;;;;;;;20.67;66.83;101795.41;5038934;28;20027;-68
2023/09/06 00:04:32;;;;;;;7.85;3.70;;;;;;;20.63;67.13;101793.38;5039536;28;20047;-68
2023/09/06 00:06:57;;;;;;;5.65;3.50;;;;;;;20.60;67.22;101791.09;5034016;28;20021;-67
2023/09/06 00:09:23;;;;;;;6.07;3.28;;;;;;;20.60;67.34;101799.19;5037499;28;20025;-68
2023/09/06 00:11:48;;;;;;;6.72;3.50;;;;;;;20.56;67.32;101782.59;5037012;28;20028;-67
2023/09/06 00:14:15;;;;;;;8.25;4.00;;;;;;;20.48;67.25;101772.03;5040843;28;20436;-68
2023/09/06 00:16:40;;;;;;;5.25;4.07;;;;;;;20.51;67.75;101785.09;5035818;28;20659;-68
2023/09/06 00:19:06;;;;;;;4.38;3.88;;;;;;;20.49;67.97;101781.78;5034054;28;20029;-67
2023/09/06 00:21:34;;;;;;;5.70;4.18;;;;;;;20.46;67.93;101775.97;5036286;28;20037;-68
2023/09/06 00:24:00;;;;;;;;;;;;;;;20.55;67.23;101780.13;5037053;28;20017;-68
2023/09/06 00:26:26;;;;;;;6.70;3.93;;;;;;;20.46;67.46;101779.50;5032991;28;19999;-67
2023/09/06 00:28:51;;;;;;;5.32;4.20;;;;;;;20.44;67.91;101780.75;5039518;28;20299;-68
2023/09/06 00:31:17;;;;;;;7.35;4.22;;;;;;;20.42;67.89;101780.97;5034818;28;20385;-68
2023/09/06 00:33:44;;;;;;;8.57;4.10;;;;;;;20.42;67.99;101779.09;5039179;28;20418;-68
2023/09/06 00:36:09;;;;;;;4.65;3.83;;;;;;;20.40;68.19;101773.09;5031991;28;20029;-68
2023/09/06 00:38:35;;;;;;;9.63;4.35;;;;;;;20.39;68.15;101776.81;5039588;28;20052;-68
2023/09/06 00:41:00;;;;;;;10.23;4.32;;;;;;;20.38;68.42;101771.63;5043828;28;20023;-68
2023/09/06 00:43:25;;;;;;;8.38;4.20;;;;;;;20.36;68.54;101779.94;5037177;28;20565;-68
2023/09/06 00:45:51;;;;;;;6.88;4.00;;;;;;;20.35;68.71;101780.97;5037115;28;20065;-68
2023/09/06 00:48:26;;;;;;;5.97;4.50;;;;;;;20.27;68.73;101788.47;5032136;28;20025;-68
2023/09/06 00:50:55;;;;;;;6.75;3.95;;;;;;;20.30;69.09;101791.59;5036376;28;20112;-68
2023/09/06 00:53:23;;;;;;;6.95;4.28;;;;;;;20.29;69.00;101789.91;5032910;28;20071;-68
2023/09/06 00:55:48;;;;;;;6.82;4.10;;;;;;;20.28;69.03;101785.56;5038451;28;20620;-67
2023/09/06 00:58:16;;;;;;;6.18;4.25;;;;;;;20.25;69.01;101790.56;5038745;28;20037;-68
2023/09/06 01:00:45;;;;;;;6.32;4.20;;;;;;;20.19;69.12;101789.50;5036783;28;20024;-67
2023/09/06 01:03:11;;;;;;;6.32;4.32;;;;;;;20.16;69.17;101789.94;5037340;28;20025;-68
2023/09/06 01:05:44;;;;;;;7.30;4.68;;;;;;;20.12;69.43;101791.41;5037535;28;20467;-68
2023/09/06 01:08:13;;;;;;;5.57;4.60;;;;;;;20.07;69.53;101800.13;5037678;28;20063;-68
2023/09/06 01:10:38;;;;;;;10.30;4.70;;;;;;;20.05;69.50;101793.28;5031838;28;20028;-67
2023/09/06 01:13:03;;;;;;;6.53;4.60;;;;;;;20.01;69.75;101802.84;5036262;28;20074;-68
2023/09/06 01:15:29;;;;;;;7.72;4.38;;;;;;;19.97;69.94;101805.13;5035427;28;20025;-68
2023/09/06 01:17:56;;;;;;;7.57;4.50;;;;;;;19.92;70.08;101796.81;5039094;28;20664;-68
2023/09/06 01:20:33;;;;;;;7.30;4.78;;;;;;;19.88;70.43;101798.28;5033710;28;20065;-68
2023/09/06 01:23:15;;;;;;;7.45;4.80;;;;;;;19.87;70.60;101799.31;5039472;28;20026;-68
2023/09/06 01:25:40;;;;;;;8.25;5.00;;;;;;;19.83;70.55;101792.69;5036161;28;20126;-68
2023/09/06 01:28:06;;;;;;;8.90;5.13;;;;;;;19.82;70.72;101803.66;5035713;28;20029;-68
2023/09/06 01:30:31;;;;;;;6.63;4.47;;;;;;;19.75;70.93;101795.59;5041949;28;20036;-68
2023/09/06 01:32:57;;;;;;;6.25;4.50;;;;;;;19.71;71.14;101788.97;5039734;28;20028;-68
2023/09/06 01:35:22;;;;;;;8.00;4.32;;;;;;;19.63;71.35;101794.53;5040056;28;20124;-68
2023/09/06 01:37:50;;;;;;;6.30;4.78;;;;;;;19.64;71.37;101794.34;5041448;28;20074;-67
2023/09/06 01:40:17;;;;;;;9.60;4.83;;;;;;;19.57;71.73;101796.19;5037894;28;20033;-67
2023/09/06 01:42:43;;;;;;;7.57;4.68;;;;;;;19.54;71.95;101802.00;5041477;28;20027;-68
2023/09/06 01:45:09;;;;;;;8.77;4.38;;;;;;;19.55;72.19;101795.59;5041922;28;20907;-67
2023/09/06 01:47:34;;;;;;;7.03;4.65;;;;;;;19.53;71.91;101794.09;5044813;28;20029;-67
2023/09/06 01:49:59;;;;;;;6.15;4.93;;;;;;;19.54;72.16;101791.22;5035827;28;20030;-68
2023/09/06 01:52:25;;;;;;;6.28;4.60;;;;;;;19.53;72.33;101789.56;5038497;28;20029;-67
2023/09/06 01:54:50;;;;;;;5.72;4.60;;;;;;;19.49;72.34;101791.81;5041676;28;20071;-67
2023/09/06 01:57:15;;;;;;;6.20;4.80;;;;;;;19.48;72.29;101792.03;5039214;28;20051;-68
2023/09/06 01:59:41;;;;;;;6.88;4.63;;;;;;;19.43;72.29;101795.34;5036280;28;20091;-67
2023/09/06 02:02:07;;;;;;;5.70;4.70;;;;;;;19.43;72.40;101799.91;5033973;28;20025;-68
2023/09/06 02:04:32;;;;;;;7.47;5.07;;;;;;;19.39;72.86;101796.78;5040301;28;20030;-68
2023/09/06 02:06:58;;;;;;;8.05;4.40;;;;;;;19.37;72.60;101798.00;5037509;28;20545;-68
2023/09/06 02:09:23;;;;;;;8.43;4.82;;;;;;;19.32;72.69;101801.31;5042688;28;20029;-68
2023/09/06 02:11:48;;;;;;;6.85;5.13;;;;;;;19.28;73.10;101797.38;5032760;28;20035;-68
2023/09/06 02:14:13;;;;;;;7.80;5.18;;;;;;;19.25;73.09;101802.34;5044216;28;20025;-68
2023/09/06 02:16:39;;;;;;;6.13;4.88;;;;;;;19.18;73.28;101800.47;5037132;28;20105;-67
2023/09/06 02:19:06;;;;;;;7.35;4.88;;;;;;;19.14;73.29;101799.22;5038572;28;20029;-67
2023/09/06 02:21:31;;;;;;;8.32;5.03;;;;;;;19.10;73.39;101808.75;5044753;28;20429;-68
2023/09/06 02:23:56;;;;;;;8.45;4.88;;;;;;;19.09;73.71;101804.41;5032999;28;20109;-68
2023/09/06 02:26:21;;;;;;;5.90;5.07;;;;;;;19.08;74.21;101799.19;5035857;28;20017;-68
2023/09/06 02:28:48;;;;;;;8.95;5.60;;;;;;;19.07;74.17;101803.75;5034709;28;20522;-68
2023/09/06 02:31:13;;;;;;;8.38;5.22;;;;;;;19.04;73.98;101801.47;5030940;28;20029;-68
2023/09/06 02:33:39;;;;;;;7.65;5.40;;;;;;;19.04;74.34;101808.72;5031522;28;20652;-68
2023/09/06 02:36:05;;;;;;;10.27;5.35;;;;;;;19.02;74.14;101811.59;5037774;28;20087;-68
2023/09/06 02:38:30;;;;;;;6.63;5.07;;;;;;;19.00;73.87;101810.16;5045107;28;20431;-68
2023/09/06 02:40:55;;;;;;;10.60;5.30;;;;;;;18.95;74.60;101807.25;5037912;28;20036;-67
2023/09/06 02:43:22;;;;;;;7.60;5.55;;;;;;;18.93;74.57;101814.69;5031721;28;20108;-67
2023/09/06 02:45:49;;;;;;;8.43;5.40;;;;;;;18.92;74.84;101821.09;5035108;28;20021;-68
2023/09/06 02:48:16;;;;;;;7.25;5.28;;;;;;;18.91;74.97;101814.91;5039314;28;20411;-67
2023/09/06 02:50:43;;;;;;;7.10;5.60;;;;;;;18.92;74.83;101826.50;5031570;28;20025;-68
2023/09/06 02:53:21;;;;;;;7.82;5.50;;;;;;;18.88;74.93;101826.06;5030691;28;20053;-68
2023/09/06 02:55:51;;;;;;;8.65;5.47;;;;;;;18.84;75.35;101828.34;5031840;28;20075;-68
2023/09/06 02:58:26;;;;;;;6.65;5.35;;;;;;;18.84;75.29;101822.13;5029643;28;20029;-67
2023/09/06 03:01:04;;;;;;;9.10;5.28;;;;;;;18.78;75.36;101817.53;5028225;28;20029;-67
2023/09/06 03:03:31;;;;;;;8.67;5.50;;;;;;;18.77;75.39;101819.38;5029193;28;20033;-68
2023/09/06 03:05:57;;;;;;;8.68;5.78;;;;;;;18.74;75.62;101822.47;5046721;28;20036;-68
2023/09/06 03:08:25;;;;;;;9.30;5.40;;;;;;;18.68;75.98;101825.97;5029613;28;20078;-67
2023/09/06 03:10:52;;;;;;;8.25;5.60;;;;;;;18.65;76.00;101830.94;5029214;28;20656;-67
2023/09/06 03:13:20;;;;;;;8.70;5.38;;;;;;;18.60;76.11;101831.50;5035225;28;20064;-67
2023/09/06 03:15:45;;;;;;;9.38;5.50;;;;;;;18.63;76.35;101825.75;5039775;28;20400;-67
2023/09/06 03:18:11;;;;;;;8.98;5.60;;;;;;;18.62;75.94;101824.09;5034726;28;20032;-68
2023/09/06 03:20:43;;;;;;;8.75;5.38;;;;;;;18.60;76.51;101826.13;5038069;28;20033;-68
2023/09/06 03:23:20;;;;;;;8.05;5.68;;;;;;;18.53;76.64;101834.16;5035992;28;20928;-67
2023/09/06 03:25:49;;;;;;;9.40;5.72;;;;;;;18.49;76.95;101830.19;5034491;28;20053;-67
2023/09/06 03:28:15;;;;;;;6.85;5.88;;;;;;;18.49;77.12;101821.28;5036072;28;20024;-68
2023/09/06 03:30:41;;;;;;;10.13;5.75;;;;;;;18.48;77.31;101828.50;5043302;28;20028;-67
2023/09/06 03:33:07;;;;;;;8.80;5.78;;;;;;;18.46;77.52;101824.38;5039270;28;20029;-68
2023/09/06 03:35:32;;;;;;;9.23;5.57;;;;;;;18.45;77.27;101828.91;5033961;28;20022;-67
2023/09/06 03:37:58;;;;;;;9.40;6.30;;;;;;;18.43;77.54;101827.47;5036340;28;20505;-67
2023/09/06 03:40:25;;;;;;;6.63;5.38;;;;;;;18.40;77.54;101825.16;5031660;28;20082;-67
2023/09/06 03:42:54;;;;;;;11.43;6.22;;;;;;;18.34;77.64;101832.19;5029838;28;20049;-68
2023/09/06 03:45:21;;;;;;;7.43;5.80;;;;;;;18.27;78.00;101826.75;5031261;28;20048;-67
2023/09/06 03:47:51;;;;;;;7.70;5.97;;;;;;;18.21;78.06;101826.69;5040446;28;20516;-68
2023/09/06 03:50:17;;;;;;;8.80;6.30;;;;;;;18.15;78.14;101830.19;5043721;28;20029;-67
2023/09/06 03:52:45;;;;;;;7.93;5.93;;;;;;;18.08;78.64;101835.50;5036752;28;20025;-67
2023/09/06 03:55:10;;;;;;;8.85;5.72;;;;;;;18.00;78.75;101837.53;5031215;28;20025;-67
2023/09/06 03:57:37;;;;;;;7.50;5.80;;;;;;;17.95;78.94;101836.25;5029661;28;20040;-67
2023/09/06 04:02:47;;;;;;;9.77;6.07;;;;;;;17.93;79.16;101834.78;5029408;28;20035;-68
2023/09/06 04:05:13;;;;;;;7.00;6.15;;;;;;;17.92;79.63;101841.16;5034050;28;20282;-67
2023/09/06 04:07:38;;;;;;;8.63;6.03;;;;;;;17.88;79.81;101837.19;5037579;28;20029;-67
2023/09/06 04:10:07;;;;;;;9.73;6.18;;;;;;;17.87;79.54;101835.53;5028766;28;20543;-67
2023/09/06 04:12:35;;;;;;;7.85;6.60;;;;;;;17.86;80.04;101844.63;5029133;28;20029;-66
2023/09/06 04:15:00;;;;;;;7.60;6.75;;;;;;;17.80;79.92;101837.34;5030882;28;20044;-67
2023/09/06 04:17:27;;;;;;;9.75;6.13;;;;;;;17.74;80.10;101840.81;5036526;28;20658;-67
2023/09/06 04:19:54;;;;;;;9.20;6.78;;;;;;;17.71;80.41;101833.97;5032468;28;20470;-67
2023/09/06 04:22:19;;;;;;;7.10;6.40;;;;;;;17.71;80.36;101844.72;5041942;28;20024;-68
2023/09/06 04:24:45;;;;;;;8.23;6.75;;;;;;;17.70;80.29;101848.44;5039650;28;21367;-67
2023/09/06 04:27:12;;;;;;;7.43;6.55;;;;;;;17.70;80.57;101850.28;5040527;28;20150;-67
2023/09/06 04:29:37;;;;;;;11.32;7.10;;;;;;;17.63;80.77;101848.31;5036057;28;20029;-67
2023/09/06 04:32:03;;;;;;;9.05;6.95;;;;;;;17.61;80.97;101849.53;5037591;28;20176;-67
2023/09/06 04:34:28;;;;;;;9.23;7.25;;;;;;;17.56;80.73;101855.50;5038548;28;20150;-67
2023/09/06 04:36:54;;;;;;;10.10;6.72;;;;;;;17.55;81.02;101853.81;5038546;28;20041;-67
2023/09/06 04:39:20;;;;;;;10.45;7.10;;;;;;;17.58;81.40;101855.28;5042407;28;20037;-67
2023/09/06 04:41:45;;;;;;;9.38;7.03;;;;;;;17.53;81.29;101855.03;5036673;28;20156;-67
2023/09/06 04:44:11;;;;;;;10.32;6.97;;;;;;;17.53;81.34;101855.03;5039532;28;20471;-68
2023/09/06 04:46:36;;;;;;;9.43;6.70;;;;;;;17.47;81.35;101851.28;5030105;28;20052;-67
2023/09/06 04:49:01;;;;;;;10.57;6.80;;;;;;;17.52;81.37;101856.06;5038597;28;20632;-67
2023/09/06 04:51:27;;;;;;;9.57;6.65;;;;;;;17.51;81.17;101860.59;5036197;28;20025;-68
2023/09/06 04:53:53;;;;;;;9.27;7.25;;;;;;;17.48;81.70;101860.16;5039050;28;20409;-68
2023/09/06 04:56:19;;;;;;;8.82;6.47;;;;;;;17.44;81.79;101857.03;5036545;28;20025;-68
2023/09/06 04:58:45;;;;;;;10.55;7.53;;;;;;;17.43;81.93;101859.91;5036149;28;20510;-68
2023/09/06 05:01:11;;;;;;;11.07;6.90;;;;;;;17.44;81.83;101865.09;5036290;28;20566;-67
2023/09/06 05:03:37;;;;;;;7.90;7.00;;;;;;;17.41;81.92;101860.09;5037397;28;20024;-67
2023/09/06 05:06:02;;;;;;;10.35;7.38;;;;;;;17.42;81.87;101864.44;5036876;28;20028;-67
2023/09/06 05:08:28;;;;;;;8.82;7.10;;;;;;;17.41;82.01;101867.31;5037562;28;20025;-68
2023/09/06 05:10:53;;;;;;;9.60;6.80;;;;;;;17.46;82.13;101871.09;5041065;28;20695;-67
2023/09/06 05:13:20;;;;;;;10.57;7.57;;;;;;;17.47;82.09;101869.25;5034305;28;20159;-67
2023/09/06 05:15:46;;;;;;;10.70;7.35;;;;;;;17.48;82.26;101882.47;5036823;28;20028;-67
2023/09/06 05:18:11;;;;;;;11.35;8.23;;;;;;;17.47;82.32;101877.28;5035802;28;20028;-68
2023/09/06 05:20:38;;;;;;;10.57;7.97;;;;;;;17.50;82.11;101887.66;5037258;28;20063;-68
2023/09/06 05:23:12;;;;;;;14.55;8.07;;;;;;;17.52;82.41;101893.66;5033082;28;20482;-67
2023/09/06 05:25:38;;;;;;;11.15;8.20;;;;;;;17.56;82.50;101889.56;5035368;28;20108;-67
2023/09/06 05:28:12;;;;;;;11.38;8.05;;;;;;;17.58;82.55;101893.72;5035804;28;20099;-67
2023/09/06 05:30:39;;;;;;;11.38;8.07;;;;;;;17.62;82.42;101896.88;5035372;28;20116;-67
2023/09/06 05:33:04;;;;;;;10.98;7.97;;;;;;;17.65;82.50;101891.97;5036920;28;20029;-68
2023/09/06 05:35:29;;;;;;;10.68;7.95;;;;;;;17.67;82.35;101891.81;5038369;28;20033;-67
2023/09/06 05:37:55;;;;;;;10.07;8.15;;;;;;;17.71;82.05;101898.47;5040080;28;20692;-68
2023/09/06 05:40:23;;;;;;;11.38;7.97;;;;;;;17.76;82.27;101897.88;5031518;28;20159;-67
2023/09/06 05:42:49;;;;;;;14.65;8.80;;;;;;;17.80;82.51;101904.53;5041316;28;20548;-68
2023/09/06 05:45:15;;;;;;;10.10;8.50;;;;;;;17.83;82.19;101896.06;5031149;28;20021;-67
2023/09/06 05:47:40;;;;;;;11.02;8.05;;;;;;;17.88;82.25;101893.63;5031698;28;20025;-66
2023/09/06 05:50:06;;;;;;;9.68;8.40;;;;;;;17.91;82.17;101898.63;5036349;28;20482;-67
2023/09/06 05:52:32;;;;;;;14.68;9.18;;;;;;;17.95;82.21;101898.06;5040994;28;20033;-67
2023/09/06 05:54:57;;;;;;;13.73;9.55;;;;;;;18.02;82.21;101898.13;5043849;28;20560;-68
2023/09/06 05:57:23;;;;;;;11.40;8.65;;;;;;;18.10;81.99;101906.03;5036391;28;20107;-68
2023/09/06 05:59:48;;;;;;;10.50;9.38;;;;;;;18.20;82.24;101903.84;5034883;28;20483;-67
2023/09/06 06:02:14;;;;;;;10.93;8.80;;;;;;;18.27;82.07;101907.44;5039914;28;20047;-67
2023/09/06 06:04:41;;;;;;;13.10;9.40;;;;;;;18.34;82.03;101910.16;5035727;28;20418;-68
2023/09/06 06:07:06;;;;;;;11.52;9.00;;;;;;;18.43;81.91;101910.84;5037686;28;20033;-68
2023/09/06 06:09:31;;;;;;;12.63;9.43;;;;;;;18.47;81.63;101904.03;5037656;28;20047;-67
2023/09/06 06:11:57;;;;;;;16.00;9.18;;;;;;;18.49;81.32;101913.56;5034572;28;20021;-67
2023/09/06 06:14:25;;;;;;;10.43;9.02;;;;;;;18.57;81.13;101915.31;5033973;28;20368;-67
2023/09/06 06:16:50;;;;;;;13.70;9.40;;;;;;;18.67;81.42;101915.81;5042994;28;20029;-68
2023/09/06 06:19:15;;;;;;;13.02;10.00;;;;;;;18.70;81.03;101920.78;5050173;28;20090;-67
2023/09/06 06:21:41;;;;;;;13.32;9.38;;;;;;;18.75;81.08;101914.81;5046482;28;20025;-67
2023/09/06 06:24:09;;;;;;;13.23;9.70;;;;;;;18.77;80.42;101916.25;5039795;28;20394;-67
2023/09/06 06:26:34;;;;;;;13.83;10.07;;;;;;;18.91;80.59;101921.75;5037315;28;20108;-67
2023/09/06 06:29:00;;;;;;;13.13;9.90;;;;;;;18.99;80.28;101922.41;5042071;28;20104;-67
2023/09/06 06:31:25;;;;;;;18.63;10.05;;;;;;;19.05;80.46;101929.66;5043705;28;20017;-67
2023/09/06 06:33:50;;;;;;;11.63;10.43;;;;;;;19.15;80.25;101929.31;5036269;28;20475;-68
2023/09/06 06:36:16;;;;;;;15.32;11.35;;;;;;;19.10;79.54;101926.41;5032462;28;20029;-68
2023/09/06 06:38:44;;;;;;;16.27;10.85;;;;;;;19.17;79.48;101928.09;5030507;28;20024;-67
2023/09/06 06:41:20;;;;;;;16.35;10.48;;;;;;;19.25;79.51;101934.31;5035022;28;20029;-67
2023/09/06 06:43:46;;;;;;;15.65;10.80;;;;;;;19.25;79.05;101927.06;5038344;28;20028;-67
2023/09/06 06:46:29;;;;;;;12.45;10.80;;;;;;;19.31;79.30;101931.66;5038265;28;20080;-67
2023/09/06 06:48:56;;;;;;;15.13;10.60;;;;;;;19.40;79.01;101938.53;5037793;28;20391;-68
2023/09/06 06:51:21;;;;;;;15.57;11.40;;;;;;;19.39;78.47;101931.50;5039694;28;20040;-67
2023/09/06 06:53:47;;;;;;;12.27;10.50;;;;;;;19.40;78.30;101935.00;5048046;28;20020;-68
2023/09/06 06:56:12;;;;;;;18.58;10.90;;;;;;;19.47;78.56;101927.78;5039385;28;20029;-68
2023/09/06 06:58:37;;;;;;;14.60;11.05;;;;;;;19.50;78.27;101941.66;5034753;28;20422;-68
2023/09/06 07:01:03;;;;;;;13.60;10.38;;;;;;;19.57;78.37;101939.03;5036865;28;20101;-67
2023/09/06 07:03:29;;;;;;;16.40;11.30;;;;;;;19.56;78.00;101950.00;5033968;28;20021;-68
2023/09/06 07:05:55;;;;;;;12.23;10.25;;;;;;;19.60;78.25;101948.56;5044059;28;20013;-68
2023/09/06 07:08:23;;;;;;;14.05;10.57;;;;;;;19.66;78.71;101945.91;5050373;28;20419;-68
2023/09/06 07:10:48;;;;;;;13.10;10.73;;;;;;;19.73;78.80;101945.91;5039022;28;20021;-67
2023/09/06 07:13:14;;;;;;;15.77;11.00;;;;;;;19.76;78.39;101948.19;5045805;28;20159;-68
2023/09/06 07:15:39;;;;;;;15.70;10.25;;;;;;;19.84;78.38;101939.91;5050313;28;20025;-68
2023/09/06 07:18:08;;;;;;;11.82;10.05;;;;;;;19.87;78.18;101942.19;5042469;28;20468;-68
2023/09/06 07:20:33;;;;;;;12.88;10.48;;;;;;;19.92;77.89;101933.47;5049966;28;20032;-68
2023/09/06 07:22:58;;;;;;;12.63;10.02;;;;;;;20.00;77.71;101950.31;5049577;28;20434;-68
2023/09/06 07:25:24;;;;;;;12.52;9.90;;;;;;;20.03;77.93;101940.97;5032244;28;20010;-68
2023/09/06 07:27:49;;;;;;;13.93;9.45;;;;;;;20.10;77.98;101936.41;5042084;28;20140;-68
2023/09/06 07:30:14;;;;;;;16.55;9.93;;;;;;;20.13;77.59;101946.78;5045093;28;20025;-68
2023/09/06 07:32:39;;;;;;;12.50;9.73;;;;;;;20.18;77.19;101941.59;5049032;28;20025;-68
2023/09/06 07:35:06;;;;;;;14.50;9.82;;;;;;;20.26;77.73;101949.50;5048754;28;20021;-67
2023/09/06 07:37:31;;;;;;;11.73;9.43;;;;;;;20.35;77.24;101936.63;5044769;28;20025;-68
2023/09/06 07:39:59;;;;;;;13.18;9.48;;;;;;;20.44;77.34;101943.50;5047754;28;20095;-68
2023/09/06 07:42:25;;;;;;;12.55;9.40;;;;;;;20.47;76.88;101934.16;5041328;28;20071;-67
2023/09/06 07:44:51;;;;;;;13.38;9.55;;;;;;;20.55;77.20;101942.06;5033966;28;20036;-68
2023/09/06 07:47:17;;;;;;;14.63;9.00;;;;;;;20.64;77.17;101947.00;5038500;28;20021;-67
2023/09/06 07:49:42;;;;;;;12.45;9.73;;;;;;;20.70;76.95;101948.88;5047564;28;20024;-67
2023/09/06 07:52:08;;;;;;;11.90;9.55;;;;;;;20.82;76.91;101950.94;5029915;28;20029;-68
2023/09/06 07:54:33;;;;;;;15.82;9.70;;;;;;;20.91;76.68;101945.09;5034228;28;20430;-68
2023/09/06 07:56:59;;;;;;;10.18;8.98;;;;;;;21.01;76.46;101952.72;5036258;28;20075;-68
2023/09/06 07:59:24;;;;;;;12.82;9.15;;;;;;;21.09;76.17;101948.97;5048198;28;20049;-68
2023/09/06 08:01:50;;;;;;;12.77;9.20;;;;;;;21.12;75.68;101952.09;5036824;28;20072;-68
2023/09/06 08:04:18;;;;;;;16.15;9.00;;;;;;;21.19;75.44;101950.19;5029333;28;20024;-68
2023/09/06 08:06:43;;;;;;;10.00;8.60;;;;;;;21.24;75.06;101955.81;5049324;28;20100;-68
2023/09/06 08:09:10;;;;;;;13.93;8.55;;;;;;;21.37;74.92;101954.91;5042041;28;20111;-67
2023/09/06 08:11:36;;;;;;;13.48;8.35;;;;;;;21.38;74.39;101958.44;5042496;28;20017;-68
2023/09/06 08:14:01;;;;;;;13.65;8.20;;;;;;;21.47;73.80;101954.47;5038909;28;20128;-68
2023/09/06 08:16:27;;;;;;;12.68;7.40;;;;;;;21.47;73.36;101952.59;5043914;28;20040;-68
2023/09/06 08:18:53;;;;;;;10.93;7.80;;;;;;;21.55;72.72;101954.22;5042926;28;20017;-68
2023/09/06 08:21:19;;;;;;;9.35;7.47;;;;;;;21.62;72.90;101958.53;5041810;28;20025;-68
2023/09/06 08:23:44;;;;;;;14.48;8.15;;;;;;;21.71;73.22;101963.72;5048951;28;20031;-68
2023/09/06 08:26:09;;;;;;;12.48;8.13;;;;;;;21.77;73.74;101960.97;5047672;28;20048;-67
2023/09/06 08:28:35;;;;;;;11.35;8.10;;;;;;;21.82;73.68;101961.13;5050278;28;20074;-68
2023/09/06 08:31:01;;;;;;;11.40;8.73;;;;;;;21.98;74.76;101958.97;5039300;28;20013;-68
2023/09/06 08:33:26;;;;;;;13.65;8.98;;;;;;;21.98;74.09;101954.38;5039469;28;20033;-68
2023/09/06 08:35:51;;;;;;;13.90;8.68;;;;;;;22.06;73.96;101958.72;5035972;28;20025;-68
2023/09/06 08:38:17;;;;;;;12.82;9.00;;;;;;;22.09;73.47;101950.16;5039031;28;20079;-68
2023/09/06 08:40:42;;;;;;;11.90;8.10;;;;;;;22.15;72.71;101960.91;5048612;28;20025;-68
2023/09/06 08:43:11;;;;;;;10.70;8.10;;;;;;;22.25;72.81;101955.00;5045840;28;20021;-68
2023/09/06 08:45:37;;;;;;;9.88;8.23;;;;;;;22.31;72.94;101956.84;5043143;28;20025;-68
2023/09/06 08:48:03;;;;;;;11.82;7.57;;;;;;;22.42;72.98;101949.88;5028560;28;20029;-68
2023/09/06 08:50:31;;;;;;;9.80;7.40;;;;;;;22.45;71.75;101961.09;5040924;28;20013;-68
2023/09/06 08:52:57;;;;;;;;;;;;;;;22.52;71.81;101967.25;5046556;28;20016;-68
2023/09/06 08:55:23;;;;;;;11.02;6.63;;;;;;;22.58;71.25;101970.16;5041331;28;19989;-68
2023/09/06 08:57:48;;;;;;;13.55;7.10;;;;;;;22.66;70.89;101964.44;5034887;28;20564;-68
2023/09/06 09:00:14;;;;;;;12.70;6.60;;;;;;;22.72;70.95;101966.25;5039293;28;20028;-68
2023/09/06 09:02:40;;;;;;;9.27;6.47;;;;;;;22.81;70.90;101964.94;5037300;28;20025;-68
2023/09/06 09:05:06;;;;;;;13.95;5.78;;;;;;;22.92;70.60;101977.75;5036019;28;20682;-67
2023/09/06 09:07:31;;;;;;;11.13;5.97;;;;;;;22.98;70.35;101966.00;5027690;28;20029;-67
2023/09/06 09:10:04;;;;;;;7.65;5.88;;;;;;;23.08;69.73;101971.72;5039953;28;20458;-68
2023/09/06 09:12:30;;;;;;;6.35;4.72;;;;;;;23.17;69.10;101978.50;5030630;28;20360;-67
2023/09/06 09:14:57;;;;;;;8.48;5.05;;;;;;;23.27;68.40;101964.41;5034595;28;20040;-68
2023/09/06 09:17:27;;;;;;;10.52;5.45;;;;;;;23.38;68.21;101969.06;5042567;28;20149;-67
2023/09/06 09:19:56;;;;;;;7.40;5.03;;;;;;;23.48;68.08;101965.84;5026207;28;20033;-68
2023/09/06 09:22:25;;;;;;;;;;;;;;;23.58;68.04;101973.44;5036976;28;20155;-67
2023/09/06 09:25:13;;;;;;;9.70;4.93;;;;;;;23.67;67.64;101970.16;5032095;28;19917;-68
2023/09/06 09:27:38;;;;;;;10.63;4.70;;;;;;;23.78;67.62;101960.44;5038292;28;20034;-67
2023/09/06 09:30:06;;;;;;;9.27;4.85;;;;;;;23.93;67.36;101968.97;5030699;28;20021;-68
2023/09/06 09:32:32;;;;;;;9.50;4.70;;;;;;;24.13;67.38;101960.53;5035358;28;20108;-68
2023/09/06 09:34:58;;;;;;;8.35;5.25;;;;;;;24.19;66.44;101961.47;5043311;28;20385;-68
2023/09/06 09:37:23;;;;;;;9.63;5.15;;;;;;;24.27;66.02;101961.94;5038963;28;20037;-68
2023/09/06 09:39:48;;;;;;;12.18;4.90;;;;;;;24.39;65.76;101956.56;5027380;28;20039;-68
2023/09/06 09:42:14;;;;;;;7.30;4.90;;;;;;;24.56;65.92;101964.84;5034070;28;20029;-68
2023/09/06 09:44:40;;;;;;;7.47;4.70;;;;;;;24.78;65.79;101957.75;5039626;28;20021;-68
2023/09/06 09:47:13;;;;;;;7.57;4.70;;;;;;;24.86;65.23;101968.25;5034741;28;20032;-68
2023/09/06 09:49:41;;;;;;;6.90;4.43;;;;;;;25.05;64.10;101960.81;5040970;28;20026;-68
2023/09/06 09:52:11;;;;;;;5.57;4.20;;;;;;;25.09;63.46;101967.41;5036613;28;20013;-68
2023/09/06 09:54:41;;;;;;;7.10;4.05;;;;;;;25.18;63.08;101962.44;5038905;28;20029;-68
2023/09/06 09:57:07;;;;;;;8.55;4.70;;;;;;;25.26;62.22;101962.06;5040394;28;20541;-68
2023/09/06 09:59:35;;;;;;;8.68;4.60;;;;;;;25.45;62.13;101954.56;5037794;28;20653;-69
2023/09/06 10:02:00;;;;;;;7.87;4.47;;;;;;;25.64;61.87;101950.56;5042964;28;20028;-68
2023/09/06 10:04:29;;;;;;;9.13;4.78;;;;;;;25.85;61.55;101965.41;5038872;28;20343;-68
2023/09/06 10:06:55;;;;;;;8.98;5.00;;;;;;;25.95;60.64;101960.13;5036101;28;20514;-68
2023/09/06 10:09:21;;;;;;;8.57;5.30;;;;;;;26.06;60.00;101959.25;5036610;28;20025;-68
2023/09/06 10:11:49;;;;;;;7.75;4.65;;;;;;;26.08;59.89;101959.81;5049065;28;20029;-68
2023/09/06 10:14:15;;;;;;;9.93;5.35;;;;;;;26.23;59.81;101951.88;5047691;28;20021;-68
2023/09/06 10:16:40;;;;;;;9.02;5.03;;;;;;;26.19;59.75;101961.63;5048260;28;20124;-68
2023/09/06 10:19:06;;;;;;;8.60;4.68;;;;;;;26.60;61.19;101954.13;5014879;28;20029;-68
2023/09/06 10:21:33;;;;;;;8.43;5.10;;;;;;;26.68;60.63;101947.41;5037264;28;20087;-67
2023/09/06 10:23:59;;;;;;;7.63;4.82;;;;;;;26.85;60.17;101950.91;5026364;28;20033;-68
2023/09/06 10:26:36;;;;;;;8.93;4.63;;;;;;;27.00;59.81;101951.16;5056258;28;20048;-68
2023/09/06 10:29:09;;;;;;;10.10;5.03;;;;;;;27.16;59.76;101944.78;5032502;28;20108;-69
2023/09/06 10:31:45;;;;;;;6.50;4.57;;;;;;;27.22;59.39;101953.88;5026377;28;20537;-69
2023/09/06 10:34:12;;;;;;;8.95;4.68;;;;;;;27.34;58.70;101949.09;5044087;28;20025;-68
2023/09/06 10:36:56;;;;;;;7.85;5.15;;;;;;;27.34;58.55;101951.00;5040153;28;20033;-69
2023/09/06 10:39:25;;;;;;;8.05;4.55;;;;;;;27.44;57.67;101948.38;5035824;28;20021;-69
2023/09/06 10:42:11;;;;;;;8.70;4.13;;;;;;;27.52;56.93;101947.13;5036687;28;20049;-69
2023/09/06 10:44:54;;;;;;;8.25;4.22;;;;;;;27.61;55.81;101945.56;5034544;28;20171;-68
2023/09/06 10:47:31;;;;;;;10.07;4.50;;;;;;;27.71;55.23;101940.25;5032388;28;20112;-68
2023/09/06 10:50:19;;;;;;;7.85;4.05;;;;;;;27.80;54.24;101940.63;5016680;28;20432;-69
2023/09/06 10:52:49;;;;;;;7.35;3.78;;;;;;;27.85;53.35;101946.94;5033285;28;20029;-68
2023/09/06 10:55:27;;;;;;;6.93;3.80;;;;;;;27.81;52.52;101940.34;5038978;28;20025;-68
2023/09/06 10:57:54;;;;;;;6.50;3.80;;;;;;;27.88;52.40;101930.03;5029014;28;20033;-69
2023/09/06 11:00:26;;;;;;;7.15;3.90;;;;;;;27.99;52.00;101923.56;5035724;28;20486;-68
2023/09/06 11:03:07;;;;;;;4.80;3.55;;;;;;;28.04;51.73;101925.50;5038412;28;20029;-68
2023/09/06 11:05:39;;;;;;;6.95;3.90;;;;;;;28.10;51.72;101927.22;5040165;28;20617;-69
2023/09/06 11:08:08;;;;;;;6.25;3.90;;;;;;;28.02;51.64;101925.78;5044475;28;20029;-70
2023/09/06 11:10:34;;;;;;;8.00;3.50;;;;;;;28.01;50.71;101932.31;5041192;28;20079;-69
2023/09/06 11:13:10;;;;;;;6.75;3.60;;;;;;;28.08;51.12;101924.75;5031175;28;20555;-69
2023/09/06 11:15:37;;;;;;;5.25;3.72;;;;;;;28.11;50.64;101922.59;5025879;28;20487;-69
2023/09/06 11:18:03;;;;;;;6.35;3.35;;;;;;;28.03;49.81;101926.59;5038185;28;20017;-69
2023/09/06 11:20:30;;;;;;;4.78;3.13;;;;;;;28.06;49.78;101915.19;5041307;28;20013;-69
2023/09/06 11:22:58;;;;;;;6.03;3.38;;;;;;;28.11;49.85;101917.94;5035819;28;20017;-69
2023/09/06 11:25:26;;;;;;;7.10;3.50;;;;;;;28.17;50.14;101922.34;5036056;28;20013;-69